Time;durP1;ratioP1;P1;durP2;ratioP2;P2;SDS_P1;SDS_P2;PMS_P1;PMS_P2;Temp;Humidity;BMP_temperature;BMP_pressure;BME280_temperature;BME280_humidity;BME280_pressure;Samples;Min_cycle;Max_cycle;Signal;HPM_P1;HPM_P2
2023/10/05 00:01:24;;;;;;;7.72;4.03;;;;;21.60;101239.00;;;;2541392;23;20199;-53
2023/10/05 00:02:24;;;;;;;6.55;4.05;;;;;21.60;101236.00;;;;2526055;23;20202;-56
2023/10/05 00:03:25;;;;;;;6.83;4.50;;;;;21.60;101241.00;;;;2540849;23;20216;-54
2023/10/05 00:04:27;;;;;;;5.83;4.10;;;;;21.70;101242.00;;;;2539087;23;20261;-56
2023/10/05 00:05:27;;;;;;;7.05;4.63;;;;;21.70;101231.00;;;;2540997;23;20202;-53
2023/10/05 00:06:27;;;;;;;10.03;4.70;;;;;21.70;101231.00;;;;2541804;23;20191;-55
2023/10/05 00:07:28;;;;;;;7.57;4.43;;;;;21.70;101224.00;;;;2526327;23;20194;-55
2023/10/05 00:08:28;;;;;;;7.40;4.50;;;;;21.70;101223.00;;;;2541698;23;20190;-55
2023/10/05 00:09:29;;;;;;;6.40;4.40;;;;;21.70;101230.00;;;;2540767;23;20252;-57
2023/10/05 00:10:30;;;;;;;7.73;4.30;;;;;21.70;101229.00;;;;2541014;23;20194;-55
2023/10/05 00:11:30;;;;;;;8.80;4.30;;;;;21.60;101226.00;;;;2541849;23;20238;-57
2023/10/05 00:12:31;;;;;;;7.00;4.60;;;;;21.70;101229.00;;;;2524944;23;20452;-56
2023/10/05 00:13:32;;;;;;;9.07;4.93;;;;;21.70;101227.00;;;;2549941;23;20235;-57
2023/10/05 00:14:35;;;;;;;6.57;4.57;;;;;21.60;101239.00;;;;2541865;23;20275;-57
2023/10/05 00:15:36;;;;;;;6.70;4.18;;;;;21.70;101256.00;;;;2541116;23;20225;-54
2023/10/05 00:16:36;;;;;;;5.72;4.03;;;;;21.60;101234.00;;;;2540879;23;20649;-57
2023/10/05 00:17:38;;;;;;;7.10;4.10;;;;;21.60;101236.00;;;;2518783;23;20202;-58
2023/10/05 00:18:38;;;;;;;6.18;4.45;;;;;21.70;101234.00;;;;2528281;23;20690;-58
2023/10/05 00:19:40;;;;;;;7.50;4.43;;;;;21.70;101228.00;;;;2540008;23;20198;-58
2023/10/05 00:20:41;;;;;;;5.80;4.00;;;;;21.70;101227.00;;;;2540298;23;20630;-56
2023/10/05 00:21:50;;;;;;;6.97;3.90;;;;;21.70;101230.00;;;;2540114;23;20206;-54
2023/10/05 00:22:51;;;;;;;5.10;3.20;;;;;21.60;101229.00;;;;2539518;23;20202;-55
2023/10/05 00:23:58;;;;;;;7.03;4.00;;;;;21.70;101234.00;;;;2540560;23;20209;-55
2023/10/05 00:24:58;;;;;;;8.07;4.05;;;;;21.60;101236.00;;;;2540995;23;20194;-55
2023/10/05 00:25:58;;;;;;;7.00;3.90;;;;;21.60;101237.00;;;;2540677;23;20721;-56
2023/10/05 00:26:59;;;;;;;5.47;3.83;;;;;21.70;101230.00;;;;2526006;23;20202;-57
2023/10/05 00:28:04;;;;;;;6.40;4.00;;;;;21.60;101058.00;;;;2540932;23;20199;-56
2023/10/05 00:30:06;;;;;;;7.40;4.27;;;;;21.60;101239.00;;;;2540681;23;20198;-54
2023/10/05 00:31:06;;;;;;;4.57;3.50;;;;;21.60;101235.00;;;;2540558;23;20705;-56
2023/10/05 00:32:20;;;;;;;5.67;3.90;;;;;21.60;101229.00;;;;2526874;23;20201;-57
2023/10/05 00:33:21;;;;;;;6.07;3.88;;;;;21.60;101232.00;;;;2540465;23;20763;-54
2023/10/05 00:34:24;;;;;;;7.10;3.77;;;;;21.60;101229.00;;;;2540643;23;20320;-57
2023/10/05 00:35:26;;;;;;;6.45;3.60;;;;;21.60;101234.00;;;;2541240;23;20194;-54
2023/10/05 00:36:33;;;;;;;4.30;3.47;;;;;21.60;101233.00;;;;2540601;23;20244;-55
2023/10/05 00:37:34;;;;;;;8.32;3.90;;;;;21.60;101230.00;;;;2516497;23;20201;-57
2023/10/05 00:38:35;;;;;;;7.50;3.50;;;;;21.60;101237.00;;;;2539149;23;20218;-55
2023/10/05 00:39:36;;;;;;;4.40;2.97;;;;;21.60;101239.00;;;;2527842;23;20254;-56
2023/10/05 00:40:37;;;;;;;6.18;3.60;;;;;21.60;101229.00;;;;2539445;23;20231;-54
2023/10/05 00:41:38;;;;;;;7.60;4.13;;;;;21.60;101232.00;;;;2540157;23;20198;-57
2023/10/05 00:42:38;;;;;;;5.40;3.40;;;;;21.60;101243.00;;;;2524342;23;20190;-57
2023/10/05 00:43:38;;;;;;;4.77;3.50;;;;;21.60;101233.00;;;;2539976;23;20190;-58
2023/10/05 00:44:41;;;;;;;6.97;3.27;;;;;21.60;101233.00;;;;2540681;23;20625;-57
2023/10/05 00:45:46;;;;;;;4.10;2.92;;;;;21.60;101236.00;;;;2540295;23;20202;-58
2023/10/05 00:46:48;;;;;;;5.60;3.13;;;;;21.60;101238.00;;;;2530735;23;20641;-57
2023/10/05 00:47:50;;;;;;;5.88;3.20;;;;;21.60;101232.00;;;;2528136;23;20203;-56
2023/10/05 00:49:04;;;;;;;5.38;3.15;;;;;21.60;101236.00;;;;2528262;23;20222;-57
2023/10/05 00:50:04;;;;;;;5.60;3.10;;;;;21.60;101235.00;;;;2529982;23;20244;-58
2023/10/05 00:51:14;;;;;;;4.80;3.20;;;;;21.60;101224.00;;;;2530763;23;20203;-57
2023/10/05 00:52:15;;;;;;;4.55;2.90;;;;;21.60;101244.00;;;;2524646;23;20273;-58
2023/10/05 00:53:17;;;;;;;5.97;3.30;;;;;21.60;101229.00;;;;2540049;23;20668;-59
2023/10/05 00:54:22;;;;;;;4.55;3.40;;;;;21.60;101207.00;;;;2527322;23;20203;-56
2023/10/05 00:55:22;;;;;;;4.38;3.22;;;;;21.60;101229.00;;;;2528644;23;20246;-58
2023/10/05 00:56:23;;;;;;;4.00;2.70;;;;;21.60;101228.00;;;;2540361;23;20296;-57
2023/10/05 00:57:27;;;;;;;7.03;3.33;;;;;21.60;101080.00;;;;2526426;23;20198;-57
2023/10/05 00:58:38;;;;;;;6.00;3.42;;;;;21.60;101235.00;;;;2540688;23;20843;-56
2023/10/05 00:59:38;;;;;;;5.20;3.10;;;;;21.60;101231.00;;;;2526828;23;20561;-58
2023/10/05 01:00:51;;;;;;;8.17;3.97;;;;;21.60;101242.00;;;;2529628;23;20219;-57
2023/10/05 01:04:23;;;;;;;5.47;3.20;;;;;21.60;101228.00;;;;2524475;23;20240;-58
2023/10/05 01:05:25;;;;;;;6.85;3.30;;;;;21.60;101228.00;;;;2529181;23;20202;-56
2023/10/05 01:06:40;;;;;;;4.32;2.85;;;;;21.60;101236.00;;;;2539220;23;20204;-58
2023/10/05 01:07:49;;;;;;;5.28;3.00;;;;;21.60;101231.00;;;;2525390;23;20522;-58
2023/10/05 01:08:55;;;;;;;4.82;2.90;;;;;21.60;101236.00;;;;2531333;23;20214;-57
2023/10/05 01:11:01;;;;;;;4.78;3.50;;;;;21.60;101225.00;;;;2540025;23;20201;-57
2023/10/05 01:13:34;;;;;;;4.60;3.08;;;;;21.60;101234.00;;;;2539084;23;20190;-58
2023/10/05 01:14:53;;;;;;;5.07;2.80;;;;;21.60;101233.00;;;;2540407;23;22160;-56
2023/10/05 01:15:54;;;;;;;5.35;2.60;;;;;21.60;101234.00;;;;2540306;23;20244;-58
2023/10/05 01:16:55;;;;;;;4.95;3.13;;;;;21.60;101236.00;;;;2525768;23;20281;-57
2023/10/05 01:17:56;;;;;;;4.27;2.90;;;;;21.60;101241.00;;;;2539269;23;20207;-58
2023/10/05 01:18:56;;;;;;;4.40;2.30;;;;;21.60;101243.00;;;;2539627;23;20261;-59
2023/10/05 01:20:07;;;;;;;3.70;2.30;;;;;21.60;101232.00;;;;2540851;23;20206;-59
2023/10/05 01:21:08;;;;;;;5.75;2.90;;;;;21.60;101255.00;;;;2540356;23;20190;-59
2023/10/05 01:22:13;;;;;;;5.00;2.88;;;;;21.60;101237.00;;;;2525579;23;20205;-56
2023/10/05 01:23:15;;;;;;;6.40;2.90;;;;;21.60;101228.00;;;;2539410;23;20222;-58
2023/10/05 01:24:16;;;;;;;6.38;3.17;;;;;21.60;101231.00;;;;2540406;23;20311;-56
2023/10/05 01:25:17;;;;;;;4.40;2.70;;;;;21.60;101231.00;;;;2539069;23;20198;-57
2023/10/05 01:26:18;;;;;;;6.03;2.83;;;;;21.60;101232.00;;;;2540263;23;20198;-57
2023/10/05 01:27:19;;;;;;;6.07;2.80;;;;;21.60;101235.00;;;;2526406;23;20543;-57
2023/10/05 01:28:20;;;;;;;4.60;2.73;;;;;21.60;101240.00;;;;2538846;23;20200;-59
2023/10/05 01:29:20;;;;;;;4.20;2.30;;;;;21.60;101238.00;;;;2539650;23;20434;-57
2023/10/05 01:30:21;;;;;;;4.43;2.60;;;;;21.60;101228.00;;;;2539891;23;20553;-57
2023/10/05 01:31:21;;;;;;;5.93;2.60;;;;;21.60;101232.00;;;;2540917;23;20200;-57
2023/10/05 01:32:22;;;;;;;6.00;3.03;;;;;21.60;101239.00;;;;2526231;23;20530;-59
2023/10/05 01:33:25;;;;;;;4.90;2.80;;;;;21.60;101243.00;;;;2539283;23;20225;-57
2023/10/05 01:34:26;;;;;;;4.53;2.70;;;;;21.60;101244.00;;;;2539319;23;20430;-57
2023/10/05 01:35:26;;;;;;;4.67;2.97;;;;;21.60;101247.00;;;;2540465;23;20209;-57
2023/10/05 01:36:27;;;;;;;5.57;2.83;;;;;21.60;101237.00;;;;2540785;23;20741;-57
2023/10/05 01:37:31;;;;;;;4.20;2.60;;;;;21.60;101246.00;;;;2526287;23;20231;-56
2023/10/05 01:38:37;;;;;;;4.53;2.55;;;;;21.60;101252.00;;;;2540632;23;20206;-56
2023/10/05 01:39:43;;;;;;;5.90;2.90;;;;;21.60;101237.00;;;;2540153;23;20194;-56
2023/10/05 01:40:47;;;;;;;4.45;2.35;;;;;21.60;101244.00;;;;2540507;23;20651;-58
2023/10/05 01:41:48;;;;;;;4.38;2.85;;;;;21.60;101248.00;;;;2525003;23;20194;-58
2023/10/05 01:42:51;;;;;;;5.13;2.20;;;;;21.60;101229.00;;;;2539981;23;20640;-58
2023/10/05 01:43:52;;;;;;;5.55;2.60;;;;;21.60;101237.00;;;;2540870;23;20206;-57
2023/10/05 01:44:52;;;;;;;6.03;2.80;;;;;21.60;101241.00;;;;2539750;23;20778;-56
2023/10/05 01:45:52;;;;;;;4.30;2.70;;;;;21.60;101241.00;;;;2540740;23;20248;-59
2023/10/05 01:46:55;;;;;;;3.67;2.60;;;;;21.60;101239.00;;;;2525951;23;20197;-58
2023/10/05 01:48:01;;;;;;;4.25;2.58;;;;;21.60;101234.00;;;;2540719;23;20210;-58
2023/10/05 01:49:01;;;;;;;5.35;2.47;;;;;21.60;101229.00;;;;2540199;23;20326;-57
2023/10/05 01:50:03;;;;;;;3.33;2.20;;;;;21.60;101225.00;;;;2540613;23;20190;-58
2023/10/05 01:51:37;;;;;;;3.53;2.30;;;;;21.60;101221.00;;;;2540445;23;20208;-57
2023/10/05 01:52:30;;;;;;;4.00;2.13;;;;;21.60;101223.00;;;;2522244;23;20198;-56
2023/10/05 01:53:32;;;;;;;3.70;2.40;;;;;21.60;101111.00;;;;2540120;23;20289;-58
2023/10/05 01:54:34;;;;;;;3.55;2.70;;;;;21.60;101225.00;;;;2540421;23;20190;-56
2023/10/05 01:55:35;;;;;;;4.25;2.28;;;;;21.60;101225.00;;;;2540518;23;20190;-56
2023/10/05 01:56:35;;;;;;;4.23;2.73;;;;;21.60;101229.00;;;;2540185;23;20204;-58
2023/10/05 01:57:37;;;;;;;4.70;2.63;;;;;21.60;101226.00;;;;2526187;23;20217;-56
2023/10/05 01:58:42;;;;;;;3.85;2.33;;;;;21.60;101290.00;;;;2539975;23;20206;-57
2023/10/05 01:59:43;;;;;;;5.70;2.97;;;;;21.60;101222.00;;;;2540052;23;20210;-57
2023/10/05 02:00:44;;;;;;;5.20;2.63;;;;;21.60;101228.00;;;;2540652;23;20198;-57
2023/10/05 02:01:45;;;;;;;4.53;2.47;;;;;21.60;101221.00;;;;2540376;23;20194;-57
2023/10/05 02:02:46;;;;;;;6.60;2.25;;;;;21.60;101232.00;;;;2523736;23;20692;-58
2023/10/05 02:03:57;;;;;;;3.60;2.33;;;;;21.60;101218.00;;;;2539043;23;20209;-57
2023/10/05 02:04:57;;;;;;;4.38;2.40;;;;;21.60;101224.00;;;;2552496;23;20432;-59
2023/10/05 02:06:05;;;;;;;3.30;2.10;;;;;21.60;101229.00;;;;2552238;23;20220;-58
2023/10/05 02:07:06;;;;;;;3.85;2.20;;;;;21.60;101228.00;;;;2525436;23;20676;-58
2023/10/05 02:08:06;;;;;;;3.53;2.03;;;;;21.60;101219.00;;;;2540185;23;20222;-58
2023/10/05 02:09:14;;;;;;;3.87;2.43;;;;;21.60;101225.00;;;;2552390;23;20648;-58
2023/10/05 02:10:19;;;;;;;3.63;2.00;;;;;21.50;101217.00;;;;2552313;23;20198;-58
2023/10/05 02:11:28;;;;;;;5.18;2.63;;;;;21.50;101218.00;;;;2551764;23;20508;-55
2023/10/05 02:12:29;;;;;;;4.30;2.20;;;;;21.50;101226.00;;;;2523961;23;20202;-57
2023/10/05 02:13:33;;;;;;;5.73;2.17;;;;;21.50;101230.00;;;;2541239;23;20220;-56
2023/10/05 02:14:37;;;;;;;5.55;2.63;;;;;21.60;101228.00;;;;2552233;23;20436;-57
2023/10/05 02:15:40;;;;;;;4.13;2.50;;;;;21.50;101230.00;;;;2539335;23;20194;-56
2023/10/05 02:16:41;;;;;;;4.18;2.35;;;;;21.60;101239.00;;;;2540918;23;20273;-57
2023/10/05 02:17:45;;;;;;;3.70;2.30;;;;;21.50;101212.00;;;;2537545;23;20976;-57
2023/10/05 02:18:46;;;;;;;4.88;2.20;;;;;21.50;101224.00;;;;2539532;23;21312;-58
2023/10/05 02:19:46;;;;;;;4.03;2.60;;;;;21.60;101220.00;;;;2527496;23;20198;-58
2023/10/05 02:20:51;;;;;;;3.70;2.40;;;;;21.60;101228.00;;;;2539421;23;20513;-59
2023/10/05 02:21:55;;;;;;;6.85;2.50;;;;;21.60;101218.00;;;;2537257;23;20292;-57
2023/10/05 02:22:55;;;;;;;4.43;2.17;;;;;21.50;101219.00;;;;2538563;23;20198;-57
2023/10/05 02:23:57;;;;;;;3.83;2.20;;;;;21.50;101217.00;;;;2539281;23;20190;-57
2023/10/05 02:24:59;;;;;;;5.50;2.55;;;;;21.60;101215.00;;;;2552084;23;20190;-57
2023/10/05 02:26:10;;;;;;;4.18;2.20;;;;;21.60;101227.00;;;;2552903;23;20217;-58
2023/10/05 02:27:14;;;;;;;4.53;2.50;;;;;21.60;101224.00;;;;2537602;23;20198;-57
2023/10/05 02:28:25;;;;;;;4.13;2.00;;;;;21.50;101223.00;;;;2552689;23;20272;-57
2023/10/05 02:29:26;;;;;;;3.08;1.77;;;;;21.50;101244.00;;;;2539417;23;20193;-58
2023/10/05 02:30:27;;;;;;;3.97;2.20;;;;;21.50;101227.00;;;;2540301;23;20194;-56
2023/10/05 02:31:28;;;;;;;4.18;2.10;;;;;21.60;101225.00;;;;2539681;23;20278;-55
2023/10/05 02:32:29;;;;;;;3.60;2.20;;;;;21.50;101221.00;;;;2525462;23;20194;-56
2023/10/05 02:33:31;;;;;;;3.80;2.17;;;;;21.50;101212.00;;;;2539645;23;20425;-57
2023/10/05 02:34:44;;;;;;;3.78;2.28;;;;;21.50;101218.00;;;;2530034;23;20285;-58
2023/10/05 02:35:48;;;;;;;4.55;2.05;;;;;21.50;101223.00;;;;2536561;23;20750;-57
2023/10/05 02:36:50;;;;;;;3.47;2.25;;;;;21.50;101232.00;;;;2524835;23;20645;-57
2023/10/05 02:37:53;;;;;;;3.28;2.05;;;;;21.50;101222.00;;;;2540070;23;20202;-58
2023/10/05 02:38:53;;;;;;;4.65;2.30;;;;;21.50;101220.00;;;;2539022;23;20517;-56
2023/10/05 02:39:54;;;;;;;5.17;2.37;;;;;21.50;101218.00;;;;2539942;23;20202;-59
2023/10/05 02:41:03;;;;;;;3.80;2.13;;;;;21.50;101224.00;;;;2522535;23;20275;-57
2023/10/05 02:42:11;;;;;;;3.50;2.30;;;;;21.40;101214.00;;;;2522011;23;20262;-57
2023/10/05 02:43:14;;;;;;;4.10;2.25;;;;;21.50;101217.00;;;;2538721;23;20909;-57
2023/10/05 02:44:19;;;;;;;4.03;1.83;;;;;21.50;101209.00;;;;2540513;23;20595;-58
2023/10/05 02:45:21;;;;;;;5.22;2.45;;;;;21.50;101214.00;;;;2513622;23;20277;-54
2023/10/05 02:46:23;;;;;;;3.85;1.90;;;;;21.50;101203.00;;;;2538431;23;20205;-56
2023/10/05 02:47:24;;;;;;;3.20;2.20;;;;;21.50;101211.00;;;;2521567;23;20668;-53
2023/10/05 02:48:24;;;;;;;5.20;2.50;;;;;21.50;101206.00;;;;2539705;23;20244;-56
2023/10/05 02:49:25;;;;;;;4.27;2.10;;;;;21.50;101207.00;;;;2541226;23;20539;-58
2023/10/05 02:50:27;;;;;;;4.40;1.97;;;;;21.50;101202.00;;;;2540504;23;20206;-57
2023/10/05 02:51:29;;;;;;;3.55;2.03;;;;;21.50;101202.00;;;;2541752;23;20432;-56
2023/10/05 02:52:32;;;;;;;3.65;2.28;;;;;21.50;101202.00;;;;2525743;23;20194;-57
2023/10/05 02:53:40;;;;;;;4.35;2.40;;;;;21.50;101210.00;;;;2541623;23;20288;-56
2023/10/05 02:54:45;;;;;;;3.00;1.73;;;;;21.50;101203.00;;;;2541363;23;20518;-57
2023/10/05 02:55:51;;;;;;;5.13;2.10;;;;;21.50;101202.00;;;;2540180;23;20640;-56
2023/10/05 02:56:54;;;;;;;6.25;2.25;;;;;21.50;101195.00;;;;2526421;23;21108;-56
2023/10/05 02:57:54;;;;;;;5.80;2.30;;;;;21.50;101196.00;;;;2540618;23;20206;-57
2023/10/05 02:58:56;;;;;;;3.30;1.97;;;;;21.50;101201.00;;;;2541799;23;20290;-53
2023/10/05 02:59:59;;;;;;;4.80;2.45;;;;;21.50;101202.00;;;;2540411;23;20194;-53
2023/10/05 03:00:59;;;;;;;2.65;1.83;;;;;21.50;101200.00;;;;2541665;23;20193;-56
2023/10/05 03:02:00;;;;;;;3.33;1.90;;;;;21.50;101203.00;;;;2527420;23;20268;-57
2023/10/05 03:03:04;;;;;;;4.20;1.80;;;;;21.50;101200.00;;;;2541190;23;20659;-53
2023/10/05 03:04:41;;;;;;;3.95;2.03;;;;;21.50;101201.00;;;;2541968;23;20453;-58
2023/10/05 03:05:32;;;;;;;4.30;2.10;;;;;21.50;101189.00;;;;2541370;23;20198;-54
2023/10/05 03:06:33;;;;;;;3.55;1.92;;;;;21.50;101190.00;;;;2528881;23;20194;-57
2023/10/05 03:07:34;;;;;;;2.85;1.73;;;;;21.50;101188.00;;;;2514323;23;20199;-55
2023/10/05 03:08:36;;;;;;;3.80;1.87;;;;;21.50;101189.00;;;;2541953;23;20825;-56
2023/10/05 03:09:36;;;;;;;4.45;2.25;;;;;21.50;101197.00;;;;2541207;23;20434;-57
2023/10/05 03:10:37;;;;;;;3.50;2.20;;;;;21.50;101197.00;;;;2541820;23;20201;-58
2023/10/05 03:11:38;;;;;;;5.53;2.00;;;;;21.50;101197.00;;;;2541365;23;20210;-56
2023/10/05 03:12:38;;;;;;;5.50;2.05;;;;;21.50;101197.00;;;;2526649;23;20486;-58
2023/10/05 03:13:38;;;;;;;3.30;1.63;;;;;21.50;101196.00;;;;2541949;23;20625;-57
2023/10/05 03:14:45;;;;;;;2.73;1.40;;;;;21.50;101191.00;;;;2541171;23;20649;-56
2023/10/05 03:15:46;;;;;;;3.40;2.03;;;;;21.50;101195.00;;;;2553455;23;20194;-55
2023/10/05 03:16:48;;;;;;;3.13;1.75;;;;;21.50;101199.00;;;;2542192;23;20204;-58
2023/10/05 03:17:51;;;;;;;3.60;2.10;;;;;21.50;101199.00;;;;2553864;23;20201;-58
2023/10/05 03:18:51;;;;;;;4.70;2.10;;;;;21.50;101192.00;;;;2553181;23;20210;-56
2023/10/05 03:19:52;;;;;;;4.37;2.03;;;;;21.50;101188.00;;;;2553651;23;20255;-58
2023/10/05 03:20:52;;;;;;;4.20;2.13;;;;;21.50;101198.00;;;;2553850;23;20202;-55
2023/10/05 03:21:57;;;;;;;5.27;2.63;;;;;21.50;101199.00;;;;2538735;23;20201;-55
2023/10/05 03:22:58;;;;;;;5.40;1.70;;;;;21.50;101189.00;;;;2553217;23;20208;-56
2023/10/05 03:23:59;;;;;;;2.92;1.90;;;;;21.50;101201.00;;;;2553372;23;20221;-58
2023/10/05 03:24:59;;;;;;;3.50;1.90;;;;;21.50;101198.00;;;;2553950;23;20863;-58
2023/10/05 03:25:59;;;;;;;4.30;2.17;;;;;21.50;101196.00;;;;2553474;23;20750;-58
2023/10/05 03:27:03;;;;;;;4.23;1.77;;;;;21.50;101190.00;;;;2538851;23;20726;-58
2023/10/05 03:28:06;;;;;;;4.50;2.17;;;;;21.50;101192.00;;;;2527990;23;20204;-58
2023/10/05 03:29:07;;;;;;;3.65;1.95;;;;;21.50;101200.00;;;;2530247;23;20251;-56
2023/10/05 03:30:14;;;;;;;3.00;1.85;;;;;21.50;101193.00;;;;2553429;23;20640;-54
2023/10/05 03:31:24;;;;;;;6.85;2.50;;;;;21.50;101191.00;;;;2553492;23;20312;-55
2023/10/05 03:32:28;;;;;;;6.32;1.90;;;;;21.50;101187.00;;;;2536235;23;20285;-57
2023/10/05 03:33:30;;;;;;;2.58;1.80;;;;;21.50;101182.00;;;;2553512;23;20283;-55
2023/10/05 03:34:32;;;;;;;3.83;1.90;;;;;21.50;101190.00;;;;2553805;23;20570;-57
2023/10/05 03:35:32;;;;;;;3.97;1.98;;;;;21.50;101184.00;;;;2553375;23;20197;-56
2023/10/05 03:36:33;;;;;;;3.70;1.90;;;;;21.50;101013.00;;;;2553707;23;20801;-54
2023/10/05 03:37:34;;;;;;;4.30;1.88;;;;;21.50;101183.00;;;;2538459;23;20205;-58
2023/10/05 03:38:35;;;;;;;3.20;1.70;;;;;21.50;101189.00;;;;2540573;23;20206;-55
2023/10/05 03:39:39;;;;;;;5.38;2.15;;;;;21.50;101184.00;;;;2540682;23;20193;-55
2023/10/05 03:40:43;;;;;;;5.50;1.95;;;;;21.50;101188.00;;;;2553192;23;20197;-57
2023/10/05 03:41:44;;;;;;;4.25;1.77;;;;;21.50;101182.00;;;;2553859;23;20606;-55
2023/10/05 03:42:46;;;;;;;4.35;1.50;;;;;21.50;101187.00;;;;2524495;23;20229;-58
2023/10/05 03:43:47;;;;;;;4.22;1.92;;;;;21.50;101193.00;;;;2534472;23;20190;-59
2023/10/05 03:45:03;;;;;;;3.30;1.90;;;;;21.50;101192.00;;;;2540937;23;20209;-56
2023/10/05 03:46:06;;;;;;;3.90;1.83;;;;;21.50;101192.00;;;;2541660;23;20635;-57
2023/10/05 03:47:06;;;;;;;3.20;1.52;;;;;21.50;101195.00;;;;2517189;23;20203;-57
2023/10/05 03:48:07;;;;;;;5.83;2.13;;;;;21.50;101028.00;;;;2539025;23;20217;-58
2023/10/05 03:49:07;;;;;;;3.53;1.70;;;;;21.50;101198.00;;;;2541234;23;20198;-54
2023/10/05 03:50:08;;;;;;;4.07;2.10;;;;;21.50;101191.00;;;;2541199;23;20202;-57
2023/10/05 03:51:15;;;;;;;3.57;1.70;;;;;21.50;101200.00;;;;2541617;23;20641;-57
2023/10/05 03:52:15;;;;;;;5.47;2.05;;;;;21.50;101201.00;;;;2526492;23;20823;-58
2023/10/05 03:53:16;;;;;;;3.00;1.63;;;;;21.50;101206.00;;;;2541271;23;20265;-58
2023/10/05 03:54:21;;;;;;;3.20;1.98;;;;;21.50;101253.00;;;;2540745;23;20190;-56
2023/10/05 03:55:24;;;;;;;2.50;1.58;;;;;21.50;101205.00;;;;2541698;23;20273;-57
2023/10/05 03:56:27;;;;;;;2.72;1.60;;;;;21.50;101197.00;;;;2541246;23;20225;-57
2023/10/05 03:57:31;;;;;;;2.90;1.65;;;;;21.50;101202.00;;;;2527216;23;20233;-58
2023/10/05 03:58:33;;;;;;;3.80;1.73;;;;;21.50;101198.00;;;;2541112;23;20225;-57
2023/10/05 03:59:33;;;;;;;4.47;2.03;;;;;21.50;101200.00;;;;2541244;23;20194;-56
2023/10/05 04:00:36;;;;;;;4.20;2.20;;;;;21.50;101199.00;;;;2541200;23;20260;-57
2023/10/05 04:01:37;;;;;;;4.45;1.92;;;;;21.50;101212.00;;;;2539848;23;20252;-56
2023/10/05 04:02:37;;;;;;;3.17;1.43;;;;;21.50;101201.00;;;;2513403;23;20198;-57
2023/10/05 04:03:38;;;;;;;6.57;2.23;;;;;21.50;101204.00;;;;2540255;23;20205;-57
2023/10/05 04:04:42;;;;;;;4.35;2.38;;;;;21.50;101206.00;;;;2541391;23;20302;-56
2023/10/05 04:05:44;;;;;;;4.60;1.90;;;;;21.50;101197.00;;;;2540313;23;20203;-53
2023/10/05 04:06:44;;;;;;;2.60;1.90;;;;;21.50;101209.00;;;;2541350;23;20214;-57
2023/10/05 04:07:45;;;;;;;3.23;1.80;;;;;21.50;101202.00;;;;2526676;23;20198;-53
2023/10/05 04:08:49;;;;;;;3.63;1.87;;;;;21.50;101210.00;;;;2540997;23;20265;-57
2023/10/05 04:09:49;;;;;;;4.30;2.10;;;;;21.50;101212.00;;;;2541043;23;20214;-56
2023/10/05 04:10:49;;;;;;;3.83;1.77;;;;;21.50;101214.00;;;;2540785;23;20206;-55
2023/10/05 04:11:50;;;;;;;2.53;1.40;;;;;21.50;101243.00;;;;2527015;23;20198;-57
2023/10/05 04:12:54;;;;;;;3.40;1.50;;;;;21.50;101210.00;;;;2540476;23;20202;-57
2023/10/05 04:13:55;;;;;;;3.45;1.52;;;;;21.50;101208.00;;;;2540969;23;20206;-54
2023/10/05 04:14:57;;;;;;;2.97;2.00;;;;;21.50;101218.00;;;;2529044;23;20209;-57
2023/10/05 04:15:59;;;;;;;4.20;1.70;;;;;21.50;101216.00;;;;2540576;23;20796;-57
2023/10/05 04:17:07;;;;;;;3.20;1.60;;;;;21.50;101209.00;;;;2526681;23;20209;-54
2023/10/05 04:18:11;;;;;;;2.67;1.70;;;;;21.50;101202.00;;;;2541198;23;20555;-57
2023/10/05 04:19:11;;;;;;;2.97;1.80;;;;;21.50;101215.00;;;;2540518;23;20194;-57
2023/10/05 04:20:19;;;;;;;4.03;1.90;;;;;21.50;101204.00;;;;2540051;23;20203;-58
2023/10/05 04:21:22;;;;;;;3.03;1.75;;;;;21.50;101208.00;;;;2541369;23;20287;-58
2023/10/05 04:22:24;;;;;;;3.13;1.80;;;;;20.30;101201.00;;;;2512971;23;20646;-58
2023/10/05 04:23:28;;;;;;;3.78;1.70;;;;;21.50;101197.00;;;;2529364;23;20704;-58
2023/10/05 04:24:28;;;;;;;2.85;1.92;;;;;21.40;101205.00;;;;2541201;23;20198;-58
2023/10/05 04:25:28;;;;;;;3.13;1.73;;;;;21.40;101196.00;;;;2541521;23;20581;-57
2023/10/05 04:26:37;;;;;;;2.90;1.70;;;;;21.40;101194.00;;;;2541319;23;20577;-57
2023/10/05 04:27:38;;;;;;;2.60;1.60;;;;;21.40;101200.00;;;;2536429;23;20216;-53
2023/10/05 04:28:46;;;;;;;4.30;1.80;;;;;21.50;101193.00;;;;2552685;23;20248;-57
2023/10/05 04:29:47;;;;;;;4.72;2.00;;;;;21.40;101199.00;;;;2547914;23;20201;-61
2023/10/05 04:30:47;;;;;;;2.30;1.50;;;;;21.40;101198.00;;;;2539946;23;20198;-60
2023/10/05 04:31:48;;;;;;;2.93;1.37;;;;;21.50;101199.00;;;;2533933;23;20257;-58
2023/10/05 04:32:48;;;;;;;3.13;1.80;;;;;21.40;101198.00;;;;2550638;23;20209;-56
2023/10/05 04:33:50;;;;;;;2.20;1.40;;;;;21.50;101202.00;;;;2552076;23;20432;-57
2023/10/05 04:34:51;;;;;;;3.95;1.75;;;;;21.40;101193.00;;;;2549069;23;20651;-57
2023/10/05 04:35:52;;;;;;;3.60;1.60;;;;;21.40;101202.00;;;;2553315;23;20198;-58
2023/10/05 04:36:54;;;;;;;3.70;1.50;;;;;21.50;101205.00;;;;2538055;23;20208;-57
2023/10/05 04:37:56;;;;;;;3.45;1.67;;;;;21.40;101208.00;;;;2552613;23;20202;-56
2023/10/05 04:38:57;;;;;;;3.17;1.75;;;;;21.40;101195.00;;;;2552040;23;20205;-57
2023/10/05 04:39:59;;;;;;;2.77;1.40;;;;;21.40;101203.00;;;;2552152;23;20259;-56
2023/10/05 04:41:00;;;;;;;4.10;1.75;;;;;21.40;101198.00;;;;2552654;23;20664;-55
2023/10/05 04:42:11;;;;;;;3.90;1.90;;;;;21.40;101195.00;;;;2538981;23;20197;-56
2023/10/05 04:43:12;;;;;;;3.13;1.88;;;;;21.50;101208.00;;;;2551083;23;20194;-57
2023/10/05 04:44:12;;;;;;;3.10;1.80;;;;;21.50;101202.00;;;;2553130;23;20273;-57
2023/10/05 04:45:14;;;;;;;3.90;2.10;;;;;21.40;101196.00;;;;2553378;23;20194;-56
2023/10/05 04:46:18;;;;;;;2.90;1.50;;;;;21.40;101199.00;;;;2539612;23;20239;-56
2023/10/05 04:47:19;;;;;;;3.53;1.70;;;;;21.40;101200.00;;;;2514023;23;20203;-57
2023/10/05 04:48:23;;;;;;;3.03;1.60;;;;;21.40;101203.00;;;;2540266;23;20197;-56
2023/10/05 04:49:24;;;;;;;3.80;1.70;;;;;21.40;101197.00;;;;2552508;23;20417;-56
2023/10/05 04:50:26;;;;;;;4.18;1.75;;;;;21.40;101197.00;;;;2552234;23;20308;-56
2023/10/05 04:51:28;;;;;;;2.63;1.65;;;;;21.40;101196.00;;;;2553079;23;20201;-56
2023/10/05 04:52:33;;;;;;;3.05;1.80;;;;;21.40;101192.00;;;;2537743;23;20205;-56
2023/10/05 04:53:38;;;;;;;2.45;1.40;;;;;21.50;101189.00;;;;2539874;23;20193;-56
2023/10/05 04:54:40;;;;;;;3.10;1.50;;;;;21.40;101199.00;;;;2541943;23;20596;-56
2023/10/05 04:55:44;;;;;;;3.58;1.40;;;;;21.40;101192.00;;;;2552591;23;20305;-56
2023/10/05 04:57:07;;;;;;;2.85;1.30;;;;;21.40;101192.00;;;;2552846;23;20638;-56
2023/10/05 04:58:21;;;;;;;3.90;1.65;;;;;21.40;101195.00;;;;2550156;23;20213;-56
2023/10/05 05:04:27;;;;;;;3.10;1.80;;;;;21.50;101196.00;;;;2540921;23;20209;-56
2023/10/05 05:05:40;;;;;;;5.13;1.77;;;;;21.50;101185.00;;;;2540746;23;20197;-56
2023/10/05 05:06:41;;;;;;;2.60;1.60;;;;;21.40;101182.00;;;;2539373;23;20324;-56
2023/10/05 05:07:41;;;;;;;3.13;1.50;;;;;21.40;101190.00;;;;2526418;23;20198;-57
2023/10/05 05:08:41;;;;;;;2.07;1.60;;;;;21.40;101194.00;;;;2552066;23;20464;-57
2023/10/05 05:09:42;;;;;;;3.20;1.40;;;;;21.40;101186.00;;;;2541252;23;20234;-53
2023/10/05 05:10:42;;;;;;;4.30;2.03;;;;;21.40;101184.00;;;;2541186;23;20277;-56
2023/10/05 05:11:43;;;;;;;2.37;1.53;;;;;21.40;101186.00;;;;2541028;23;20194;-57
2023/10/05 05:12:43;;;;;;;4.77;1.10;;;;;21.40;101189.00;;;;2526711;23;20198;-57
2023/10/05 05:13:46;;;;;;;3.90;1.83;;;;;21.40;101177.00;;;;2541169;23;20210;-56
2023/10/05 05:14:49;;;;;;;4.65;2.30;;;;;21.40;101187.00;;;;2539859;23;20290;-53
2023/10/05 05:15:50;;;;;;;5.55;1.70;;;;;21.50;101186.00;;;;2540216;23;20997;-57
2023/10/05 05:16:52;;;;;;;2.70;1.53;;;;;21.50;101181.00;;;;2526864;23;20209;-55
2023/10/05 05:17:52;;;;;;;2.88;1.60;;;;;21.40;101176.00;;;;2541319;23;20202;-57
2023/10/05 05:18:55;;;;;;;5.87;2.10;;;;;21.40;101184.00;;;;2540783;23;20241;-55
2023/10/05 05:19:56;;;;;;;3.08;1.40;;;;;21.50;101185.00;;;;2540701;23;20709;-55
2023/10/05 05:20:56;;;;;;;2.13;1.50;;;;;21.40;101183.00;;;;2541018;23;20217;-54
2023/10/05 05:21:59;;;;;;;4.30;1.83;;;;;21.40;101186.00;;;;2526958;23;20256;-55
2023/10/05 05:23:03;;;;;;;5.15;1.60;;;;;21.40;101187.00;;;;2540697;23;20273;-57